WTB08M CYYZ-MDSD
Flight info
| Callsign | WTB08M |
|---|---|
| Flight time | N/A |
| Altitude | 33000 |
| Route | BETES3 AIRRA DCT MOL/N0448F320 DCT DRAIK DCT OMENS/N0445F330 DCT MARCL DCT DEEEZ/N0450F320 DCT GARIC AR3 JAZZI Y307 CASPR/N0450F340 Y307 NUCAR/N0454F330 L463 JUELE UL463 PTA UT20 KODIX KODIX2G |
| Aircraft | A306/H-SDE3FGHIRWY/LB1 |
Departure
| Time | N/A |
|---|---|
| Airport | Toronto Pearson International Airport (CYYZ) |
Arrival
| Time | 2026-05-05 10:14 |
|---|---|
| Airport | Las Américas International Airport (MDSD) |
| Time | Latitude | Longitude | Altitude | Speed | Heading |
|---|---|---|---|---|---|
| 2026-05-05 06:48 | 41.60338 | -80.06008 | 31194 ft | 453 kts | 184° |
| 2026-05-05 06:48 | 41.57187 | -80.06031 | 31377 ft | 452 kts | 184° |
| 2026-05-05 06:48 | 41.54038 | -80.06055 | 31522 ft | 452 kts | 184° |
| 2026-05-05 06:48 | 41.50890 | -80.06078 | 31651 ft | 453 kts | 184° |
| 2026-05-05 06:49 | 41.47734 | -80.06102 | 31835 ft | 453 kts | 184° |
| 2026-05-05 06:49 | 41.44582 | -80.06125 | 32034 ft | 452 kts | 184° |
| 2026-05-05 06:49 | 41.41442 | -80.06147 | 32216 ft | 452 kts | 184° |
| 2026-05-05 06:49 | 41.38297 | -80.06170 | 32400 ft | 451 kts | 184° |
| 2026-05-05 06:50 | 41.35154 | -80.06193 | 32574 ft | 451 kts | 184° |
| 2026-05-05 06:50 | 41.32013 | -80.06217 | 32722 ft | 451 kts | 184° |
| 2026-05-05 06:50 | 41.28872 | -80.06240 | 32782 ft | 449 kts | 184° |
| 2026-05-05 06:51 | 41.22705 | -80.06280 | 32794 ft | 440 kts | 183° |
| 2026-05-05 06:51 | 41.16600 | -80.05548 | 32800 ft | 442 kts | 175° |
| 2026-05-05 06:52 | 41.10548 | -80.04300 | 32802 ft | 443 kts | 173° |
| 2026-05-05 06:52 | 41.04470 | -80.02932 | 32813 ft | 443 kts | 173° |
| 2026-05-05 06:53 | 40.98375 | -80.01567 | 32817 ft | 443 kts | 173° |
| 2026-05-05 06:53 | 40.92293 | -80.00229 | 32817 ft | 443 kts | 173° |
| 2026-05-05 06:54 | 40.86195 | -79.98899 | 32823 ft | 444 kts | 173° |
| 2026-05-05 06:54 | 40.80144 | -79.97583 | 33088 ft | 443 kts | 173° |
| 2026-05-05 06:54 | 40.77061 | -79.96914 | 33367 ft | 443 kts | 173° |
| 2026-05-05 06:55 | 40.74058 | -79.96261 | 33642 ft | 442 kts | 173° |
| 2026-05-05 06:55 | 40.71022 | -79.95602 | 33825 ft | 442 kts | 173° |
| 2026-05-05 06:55 | 40.67986 | -79.94944 | 33836 ft | 442 kts | 173° |
| 2026-05-05 06:56 | 40.61923 | -79.93632 | 33839 ft | 442 kts | 173° |
| 2026-05-05 06:56 | 40.55843 | -79.92318 | 33838 ft | 442 kts | 173° |
| 2026-05-05 06:57 | 40.49761 | -79.91007 | 33843 ft | 442 kts | 173° |
| 2026-05-05 06:57 | 40.43689 | -79.89699 | 33839 ft | 443 kts | 173° |
| 2026-05-05 06:58 | 40.37597 | -79.88391 | 33841 ft | 444 kts | 173° |
| 2026-05-05 06:58 | 40.31493 | -79.87081 | 33841 ft | 444 kts | 173° |
| 2026-05-05 06:59 | 40.25424 | -79.85781 | 33840 ft | 444 kts | 173° |
| 2026-05-05 06:59 | 40.19329 | -79.84479 | 33843 ft | 444 kts | 173° |
| 2026-05-05 07:00 | 40.13231 | -79.83177 | 33843 ft | 444 kts | 173° |
| 2026-05-05 07:00 | 40.07129 | -79.81877 | 33850 ft | 444 kts | 173° |
| 2026-05-05 07:01 | 40.01033 | -79.80582 | 33852 ft | 444 kts | 173° |
| 2026-05-05 07:01 | 39.94923 | -79.79285 | 33861 ft | 445 kts | 174° |
| 2026-05-05 07:02 | 39.88816 | -79.77990 | 33872 ft | 445 kts | 174° |
| 2026-05-05 07:02 | 39.82706 | -79.76699 | 33881 ft | 444 kts | 174° |
| 2026-05-05 07:03 | 39.76600 | -79.75411 | 33884 ft | 445 kts | 174° |
| 2026-05-05 07:03 | 39.70477 | -79.74123 | 33890 ft | 445 kts | 174° |
| 2026-05-05 07:04 | 39.64413 | -79.72848 | 33893 ft | 445 kts | 174° |
| 2026-05-05 07:04 | 39.58300 | -79.71564 | 33898 ft | 445 kts | 174° |
| 2026-05-05 07:05 | 39.52191 | -79.70283 | 33903 ft | 444 kts | 174° |
| 2026-05-05 07:05 | 39.46087 | -79.69006 | 33919 ft | 444 kts | 174° |
| 2026-05-05 07:06 | 39.39989 | -79.67732 | 33925 ft | 444 kts | 174° |
| 2026-05-05 07:06 | 39.33885 | -79.66461 | 33904 ft | 444 kts | 174° |
| 2026-05-05 07:07 | 39.27824 | -79.65201 | 33935 ft | 444 kts | 175° |
| 2026-05-05 07:07 | 39.21734 | -79.63935 | 33937 ft | 443 kts | 175° |
| 2026-05-05 07:08 | 39.15634 | -79.62670 | 33938 ft | 443 kts | 175° |
| 2026-05-05 07:08 | 39.09545 | -79.61411 | 33939 ft | 443 kts | 175° |
| 2026-05-05 07:09 | 39.03444 | -79.60151 | 33943 ft | 444 kts | 175° |
| 2026-05-05 07:09 | 38.97339 | -79.58892 | 33948 ft | 444 kts | 175° |
| 2026-05-05 07:10 | 38.91240 | -79.57635 | 33956 ft | 444 kts | 175° |
| 2026-05-05 07:10 | 38.85134 | -79.56379 | 33954 ft | 445 kts | 175° |
| 2026-05-05 07:11 | 38.79011 | -79.55124 | 33960 ft | 446 kts | 175° |
| 2026-05-05 07:11 | 38.72881 | -79.53869 | 33969 ft | 446 kts | 175° |
| 2026-05-05 07:12 | 38.66739 | -79.52612 | 33965 ft | 446 kts | 175° |
| 2026-05-05 07:12 | 38.60608 | -79.51360 | 33972 ft | 447 kts | 175° |
| 2026-05-05 07:13 | 38.54494 | -79.50117 | 33975 ft | 448 kts | 175° |
| 2026-05-05 07:13 | 38.48344 | -79.48867 | 33975 ft | 448 kts | 175° |
| 2026-05-05 07:14 | 38.42183 | -79.47615 | 33975 ft | 448 kts | 175° |
| 2026-05-05 07:14 | 38.36024 | -79.46366 | 33981 ft | 448 kts | 175° |
| 2026-05-05 07:15 | 38.30909 | -79.45331 | 33975 ft | 448 kts | 175° |
| 2026-05-05 07:15 | 38.24745 | -79.44085 | 33980 ft | 448 kts | 175° |
| 2026-05-05 07:16 | 38.18578 | -79.42840 | 33983 ft | 448 kts | 175° |
| 2026-05-05 07:16 | 38.12412 | -79.41597 | 33973 ft | 449 kts | 175° |
| 2026-05-05 07:17 | 38.06244 | -79.40360 | 33973 ft | 449 kts | 175° |
| 2026-05-05 07:17 | 38.00102 | -79.39129 | 33976 ft | 449 kts | 175° |
| 2026-05-05 07:18 | 37.93919 | -79.37890 | 33942 ft | 449 kts | 175° |
| 2026-05-05 07:18 | 37.87751 | -79.36656 | 33935 ft | 449 kts | 175° |
| 2026-05-05 07:19 | 37.81577 | -79.35424 | 33933 ft | 449 kts | 175° |
| 2026-05-05 07:19 | 37.75411 | -79.34194 | 33941 ft | 449 kts | 175° |
| 2026-05-05 07:20 | 37.69232 | -79.32966 | 33942 ft | 449 kts | 175° |
| 2026-05-05 07:20 | 37.63068 | -79.31741 | 33961 ft | 449 kts | 175° |
| 2026-05-05 07:21 | 37.56894 | -79.30516 | 33984 ft | 449 kts | 175° |
| 2026-05-05 07:21 | 37.50721 | -79.29294 | 33992 ft | 449 kts | 175° |
| 2026-05-05 07:22 | 37.44555 | -79.28075 | 33991 ft | 449 kts | 175° |
| 2026-05-05 07:22 | 37.38381 | -79.26858 | 33999 ft | 450 kts | 175° |
| 2026-05-05 07:23 | 37.32230 | -79.25646 | 33998 ft | 450 kts | 175° |
| 2026-05-05 07:23 | 37.26045 | -79.24430 | 33982 ft | 450 kts | 175° |
| 2026-05-05 07:24 | 37.19849 | -79.23213 | 33982 ft | 451 kts | 176° |
| 2026-05-05 07:24 | 37.13641 | -79.21997 | 33983 ft | 452 kts | 176° |
| 2026-05-05 07:25 | 37.07409 | -79.20778 | 33986 ft | 453 kts | 176° |
| 2026-05-05 07:25 | 37.01189 | -79.19561 | 33989 ft | 453 kts | 176° |
| 2026-05-05 07:26 | 36.94958 | -79.18346 | 34004 ft | 453 kts | 176° |
| 2026-05-05 07:26 | 36.88719 | -79.17132 | 33994 ft | 454 kts | 176° |
| 2026-05-05 07:27 | 36.82477 | -79.15918 | 33998 ft | 454 kts | 176° |
| 2026-05-05 07:27 | 36.76268 | -79.14713 | 34005 ft | 454 kts | 176° |
| 2026-05-05 07:28 | 36.70036 | -79.13505 | 34014 ft | 454 kts | 176° |
| 2026-05-05 07:28 | 36.63784 | -79.12296 | 34019 ft | 454 kts | 176° |
| 2026-05-05 07:29 | 36.57527 | -79.11088 | 34021 ft | 455 kts | 176° |
| 2026-05-05 07:29 | 36.51280 | -79.09883 | 34033 ft | 455 kts | 176° |
| 2026-05-05 07:30 | 36.45019 | -79.08678 | 34043 ft | 454 kts | 176° |
| 2026-05-05 07:30 | 36.35646 | -79.06879 | 34062 ft | 455 kts | 176° |
| 2026-05-05 07:31 | 36.29432 | -79.05688 | 34060 ft | 454 kts | 176° |
| 2026-05-05 07:31 | 36.23179 | -79.04490 | 34046 ft | 454 kts | 176° |
| 2026-05-05 07:32 | 36.16944 | -79.03298 | 34060 ft | 453 kts | 176° |
| 2026-05-05 07:32 | 36.10724 | -79.02111 | 34054 ft | 452 kts | 176° |
| 2026-05-05 07:33 | 36.04502 | -79.00927 | 34048 ft | 452 kts | 176° |
| 2026-05-05 07:33 | 35.98274 | -78.99743 | 34041 ft | 452 kts | 176° |
| 2026-05-05 07:34 | 35.92050 | -78.98561 | 34057 ft | 452 kts | 176° |
| 2026-05-05 07:34 | 35.85837 | -78.97383 | 34056 ft | 452 kts | 176° |
| 2026-05-05 07:35 | 35.79614 | -78.96206 | 34058 ft | 452 kts | 176° |
| 2026-05-05 07:35 | 35.73393 | -78.95030 | 34049 ft | 452 kts | 176° |
| 2026-05-05 07:36 | 35.67184 | -78.93859 | 34068 ft | 451 kts | 176° |
| 2026-05-05 07:36 | 35.61016 | -78.92698 | 34073 ft | 451 kts | 176° |
| 2026-05-05 07:37 | 35.54797 | -78.91529 | 34076 ft | 451 kts | 176° |
| 2026-05-05 07:37 | 35.48591 | -78.90363 | 34074 ft | 451 kts | 176° |
| 2026-05-05 07:38 | 35.42375 | -78.89197 | 34061 ft | 452 kts | 176° |
| 2026-05-05 07:38 | 35.36158 | -78.88033 | 34059 ft | 452 kts | 176° |
| 2026-05-05 07:39 | 35.29932 | -78.86870 | 34062 ft | 452 kts | 176° |
| 2026-05-05 07:39 | 35.23723 | -78.85712 | 34042 ft | 452 kts | 176° |
| 2026-05-05 07:40 | 35.17545 | -78.84561 | 34063 ft | 452 kts | 176° |
| 2026-05-05 07:40 | 35.11314 | -78.83402 | 34054 ft | 453 kts | 176° |
| 2026-05-05 07:41 | 35.05085 | -78.82244 | 34073 ft | 453 kts | 176° |
| 2026-05-05 07:41 | 34.98858 | -78.81089 | 34073 ft | 453 kts | 176° |
| 2026-05-05 07:42 | 34.92619 | -78.79934 | 34073 ft | 454 kts | 175° |
| 2026-05-05 07:42 | 34.86371 | -78.78780 | 34072 ft | 454 kts | 175° |
| 2026-05-05 07:43 | 34.80121 | -78.77626 | 34074 ft | 454 kts | 175° |
| 2026-05-05 07:43 | 34.73869 | -78.76473 | 34074 ft | 454 kts | 175° |
| 2026-05-05 07:44 | 34.67662 | -78.75331 | 34079 ft | 454 kts | 175° |
| 2026-05-05 07:44 | 34.61413 | -78.74182 | 34097 ft | 454 kts | 175° |
| 2026-05-05 07:45 | 34.55156 | -78.73034 | 34097 ft | 454 kts | 175° |
| 2026-05-05 07:45 | 34.48907 | -78.71889 | 34096 ft | 454 kts | 175° |
| 2026-05-05 07:46 | 34.42651 | -78.70745 | 34097 ft | 454 kts | 175° |
| 2026-05-05 07:46 | 34.36405 | -78.69604 | 34101 ft | 454 kts | 175° |
| 2026-05-05 07:47 | 34.30152 | -78.68464 | 34101 ft | 454 kts | 175° |
| 2026-05-05 07:47 | 34.23910 | -78.67327 | 34102 ft | 452 kts | 175° |
| 2026-05-05 07:48 | 34.17697 | -78.66196 | 34097 ft | 451 kts | 175° |
| 2026-05-05 07:48 | 34.11488 | -78.65069 | 34098 ft | 451 kts | 175° |
| 2026-05-05 07:49 | 34.05273 | -78.63943 | 34097 ft | 451 kts | 175° |
| 2026-05-05 07:49 | 33.99055 | -78.62818 | 34093 ft | 451 kts | 175° |
| 2026-05-05 07:50 | 33.92846 | -78.61696 | 34086 ft | 451 kts | 175° |
| 2026-05-05 07:50 | 33.86667 | -78.60581 | 34092 ft | 452 kts | 175° |
| 2026-05-05 07:51 | 33.80440 | -78.59459 | 34092 ft | 452 kts | 175° |
| 2026-05-05 07:51 | 33.74206 | -78.58338 | 34094 ft | 453 kts | 175° |
| 2026-05-05 07:52 | 33.67981 | -78.57219 | 34074 ft | 453 kts | 175° |
| 2026-05-05 07:52 | 33.61742 | -78.56100 | 34094 ft | 453 kts | 175° |
| 2026-05-05 07:53 | 33.55493 | -78.54980 | 34091 ft | 454 kts | 175° |
| 2026-05-05 07:53 | 33.49252 | -78.53863 | 34091 ft | 454 kts | 175° |
| 2026-05-05 07:54 | 33.43041 | -78.52754 | 34091 ft | 454 kts | 175° |
| 2026-05-05 07:54 | 33.36785 | -78.51638 | 34091 ft | 455 kts | 175° |
| 2026-05-05 07:55 | 33.30524 | -78.50524 | 34091 ft | 455 kts | 175° |
| 2026-05-05 07:55 | 33.24251 | -78.49408 | 34089 ft | 455 kts | 175° |
| 2026-05-05 07:56 | 33.17983 | -78.48294 | 34081 ft | 455 kts | 175° |
| 2026-05-05 07:56 | 33.11707 | -78.47181 | 34083 ft | 456 kts | 175° |
| 2026-05-05 07:57 | 33.05414 | -78.46068 | 34089 ft | 457 kts | 175° |
| 2026-05-05 07:57 | 32.99122 | -78.44955 | 34088 ft | 457 kts | 175° |
| 2026-05-05 07:58 | 32.92820 | -78.43842 | 34090 ft | 457 kts | 175° |
| 2026-05-05 07:58 | 32.86518 | -78.42731 | 34090 ft | 457 kts | 175° |
| 2026-05-05 07:59 | 32.80224 | -78.41622 | 34091 ft | 458 kts | 175° |
| 2026-05-05 07:59 | 32.73919 | -78.40514 | 34089 ft | 458 kts | 175° |
| 2026-05-05 08:00 | 32.67657 | -78.39415 | 34091 ft | 458 kts | 175° |
| 2026-05-05 08:00 | 32.61349 | -78.38309 | 34071 ft | 458 kts | 176° |
| 2026-05-05 08:01 | 32.55031 | -78.37203 | 34089 ft | 459 kts | 176° |
| 2026-05-05 08:01 | 32.48709 | -78.36098 | 34089 ft | 460 kts | 176° |
| 2026-05-05 08:02 | 32.43446 | -78.35179 | 34088 ft | 460 kts | 176° |
| 2026-05-05 08:02 | 32.37113 | -78.34074 | 34091 ft | 460 kts | 176° |
| 2026-05-05 08:03 | 32.30776 | -78.32971 | 34085 ft | 461 kts | 176° |
| 2026-05-05 08:03 | 32.24427 | -78.31867 | 34084 ft | 462 kts | 176° |
| 2026-05-05 08:04 | 32.18061 | -78.30762 | 34100 ft | 462 kts | 176° |
| 2026-05-05 08:04 | 32.11741 | -78.29665 | 34102 ft | 462 kts | 176° |
| 2026-05-05 08:05 | 32.05337 | -78.28556 | 34078 ft | 462 kts | 177° |
| 2026-05-05 08:05 | 31.98990 | -78.27460 | 34092 ft | 465 kts | 177° |
| 2026-05-05 08:06 | 31.92579 | -78.26354 | 34092 ft | 465 kts | 177° |
| 2026-05-05 08:06 | 31.86177 | -78.25249 | 34093 ft | 465 kts | 177° |
| 2026-05-05 08:07 | 31.79765 | -78.24144 | 34073 ft | 465 kts | 178° |
| 2026-05-05 08:07 | 31.73341 | -78.23041 | 34092 ft | 467 kts | 178° |
| 2026-05-05 08:08 | 31.66899 | -78.21935 | 34097 ft | 467 kts | 178° |
| 2026-05-05 08:08 | 31.60456 | -78.20830 | 34093 ft | 468 kts | 178° |
| 2026-05-05 08:09 | 31.54013 | -78.19726 | 34095 ft | 468 kts | 178° |
| 2026-05-05 08:09 | 31.47611 | -78.18631 | 34104 ft | 469 kts | 179° |
| 2026-05-05 08:10 | 31.41149 | -78.17529 | 34088 ft | 470 kts | 179° |
| 2026-05-05 08:10 | 31.34639 | -78.16419 | 34089 ft | 470 kts | 179° |
| 2026-05-05 08:11 | 31.28213 | -78.15324 | 34091 ft | 470 kts | 179° |
| 2026-05-05 08:11 | 31.21748 | -78.14225 | 34088 ft | 470 kts | 179° |
| 2026-05-05 08:12 | 31.15260 | -78.13124 | 34091 ft | 471 kts | 179° |
| 2026-05-05 08:12 | 31.08772 | -78.12024 | 34091 ft | 471 kts | 179° |
| 2026-05-05 08:13 | 31.02274 | -78.10923 | 34092 ft | 472 kts | 179° |
| 2026-05-05 08:13 | 30.95774 | -78.09824 | 34063 ft | 472 kts | 180° |
| 2026-05-05 08:14 | 30.89260 | -78.08725 | 34094 ft | 473 kts | 180° |
| 2026-05-05 08:14 | 30.82741 | -78.07626 | 34089 ft | 474 kts | 180° |
| 2026-05-05 08:15 | 30.76211 | -78.06525 | 34088 ft | 474 kts | 180° |
| 2026-05-05 08:15 | 30.69678 | -78.05426 | 34088 ft | 474 kts | 180° |
| 2026-05-05 08:16 | 30.63147 | -78.04330 | 34089 ft | 475 kts | 180° |
| 2026-05-05 08:16 | 30.56587 | -78.03231 | 34089 ft | 476 kts | 180° |
| 2026-05-05 08:17 | 30.50071 | -78.02139 | 34086 ft | 476 kts | 180° |
| 2026-05-05 08:17 | 30.43516 | -78.01042 | 34086 ft | 476 kts | 180° |
| 2026-05-05 08:18 | 30.36932 | -77.99943 | 34090 ft | 477 kts | 180° |
| 2026-05-05 08:18 | 30.30357 | -77.98847 | 34091 ft | 478 kts | 180° |
| 2026-05-05 08:19 | 30.23765 | -77.97749 | 34079 ft | 478 kts | 180° |
| 2026-05-05 08:19 | 30.17221 | -77.96659 | 34080 ft | 478 kts | 180° |
| 2026-05-05 08:20 | 30.10638 | -77.95565 | 34091 ft | 478 kts | 180° |
| 2026-05-05 08:20 | 30.04081 | -77.94475 | 34073 ft | 474 kts | 180° |
| 2026-05-05 08:21 | 29.97541 | -77.93390 | 34073 ft | 473 kts | 180° |
| 2026-05-05 08:21 | 29.91023 | -77.92313 | 34090 ft | 474 kts | 180° |
| 2026-05-05 08:22 | 29.84493 | -77.91236 | 34073 ft | 474 kts | 180° |
| 2026-05-05 08:22 | 29.77956 | -77.90159 | 34074 ft | 474 kts | 180° |
| 2026-05-05 08:23 | 29.71423 | -77.89082 | 34072 ft | 475 kts | 180° |
| 2026-05-05 08:23 | 29.64916 | -77.88011 | 34073 ft | 475 kts | 180° |
| 2026-05-05 08:24 | 29.58370 | -77.86935 | 34072 ft | 475 kts | 180° |
| 2026-05-05 08:24 | 29.51825 | -77.85861 | 34069 ft | 475 kts | 179° |
| 2026-05-05 08:25 | 29.45275 | -77.84787 | 34065 ft | 475 kts | 179° |
| 2026-05-05 08:25 | 29.38723 | -77.83714 | 34083 ft | 475 kts | 179° |
| 2026-05-05 08:26 | 29.32207 | -77.82649 | 34080 ft | 475 kts | 179° |
| 2026-05-05 08:26 | 29.25655 | -77.81579 | 34037 ft | 475 kts | 179° |
| 2026-05-05 08:27 | 29.19090 | -77.80509 | 34062 ft | 477 kts | 179° |
| 2026-05-05 08:27 | 29.12512 | -77.79438 | 34059 ft | 477 kts | 179° |
| 2026-05-05 08:28 | 29.05932 | -77.78367 | 34056 ft | 477 kts | 179° |
| 2026-05-05 08:28 | 28.99364 | -77.77300 | 34053 ft | 477 kts | 179° |
| 2026-05-05 08:29 | 28.92781 | -77.76232 | 34053 ft | 478 kts | 179° |
| 2026-05-05 08:30 | 28.82877 | -77.74630 | 34050 ft | 480 kts | 179° |
| 2026-05-05 08:30 | 28.76264 | -77.73559 | 34048 ft | 480 kts | 179° |
| 2026-05-05 08:31 | 28.69657 | -77.72492 | 34049 ft | 480 kts | 179° |
| 2026-05-05 08:31 | 28.63085 | -77.71432 | 34042 ft | 481 kts | 179° |
| 2026-05-05 08:32 | 28.56446 | -77.70364 | 34042 ft | 482 kts | 179° |
| 2026-05-05 08:32 | 28.49803 | -77.69295 | 34042 ft | 482 kts | 179° |
| 2026-05-05 08:33 | 28.43158 | -77.68226 | 34043 ft | 482 kts | 179° |
| 2026-05-05 08:33 | 28.36514 | -77.67160 | 34042 ft | 482 kts | 179° |
| 2026-05-05 08:34 | 28.29848 | -77.66093 | 34038 ft | 484 kts | 179° |
| 2026-05-05 08:34 | 28.23181 | -77.65026 | 34036 ft | 484 kts | 179° |
| 2026-05-05 08:35 | 28.16506 | -77.63898 | 34028 ft | 488 kts | 174° |
| 2026-05-05 08:35 | 28.10103 | -77.61023 | 34030 ft | 506 kts | 152° |
| 2026-05-05 08:36 | 28.04373 | -77.56441 | 34447 ft | 505 kts | 147° |
| 2026-05-05 08:36 | 28.01599 | -77.54034 | 34749 ft | 504 kts | 147° |
| 2026-05-05 08:36 | 27.98823 | -77.51597 | 34860 ft | 506 kts | 147° |
| 2026-05-05 08:36 | 27.96034 | -77.49153 | 34990 ft | 507 kts | 147° |
| 2026-05-05 08:37 | 27.93235 | -77.46714 | 35023 ft | 508 kts | 147° |
| 2026-05-05 08:37 | 27.87619 | -77.41865 | 35026 ft | 507 kts | 148° |
| 2026-05-05 08:38 | 27.82056 | -77.36944 | 35026 ft | 509 kts | 146° |
| 2026-05-05 08:38 | 27.76549 | -77.31909 | 35019 ft | 509 kts | 146° |
| 2026-05-05 08:39 | 27.71035 | -77.26871 | 35022 ft | 509 kts | 146° |
| 2026-05-05 08:39 | 27.65517 | -77.21859 | 35027 ft | 509 kts | 146° |
| 2026-05-05 08:40 | 27.60011 | -77.16875 | 35021 ft | 505 kts | 147° |
| 2026-05-05 08:40 | 27.54528 | -77.11922 | 35018 ft | 504 kts | 147° |
| 2026-05-05 08:41 | 27.49061 | -77.06993 | 35022 ft | 504 kts | 147° |
| 2026-05-05 08:41 | 27.43616 | -77.02089 | 34995 ft | 504 kts | 147° |
| 2026-05-05 08:42 | 27.38129 | -76.97153 | 35022 ft | 506 kts | 147° |
| 2026-05-05 08:42 | 27.32623 | -76.92205 | 35020 ft | 506 kts | 147° |
| 2026-05-05 08:43 | 27.27122 | -76.87267 | 35019 ft | 506 kts | 147° |
| 2026-05-05 08:43 | 27.21622 | -76.82335 | 35020 ft | 504 kts | 147° |
| 2026-05-05 08:44 | 27.16151 | -76.77436 | 35017 ft | 502 kts | 147° |
| 2026-05-05 08:44 | 27.10684 | -76.72550 | 35018 ft | 502 kts | 147° |
| 2026-05-05 08:45 | 27.05216 | -76.67670 | 35012 ft | 502 kts | 147° |
| 2026-05-05 08:45 | 26.99745 | -76.62792 | 35010 ft | 502 kts | 147° |
| 2026-05-05 08:46 | 26.94274 | -76.57920 | 35007 ft | 502 kts | 147° |
| 2026-05-05 08:46 | 26.88840 | -76.53086 | 35007 ft | 502 kts | 147° |
| 2026-05-05 08:47 | 26.83365 | -76.48223 | 35008 ft | 501 kts | 148° |
| 2026-05-05 08:47 | 26.78831 | -76.44198 | 35003 ft | 500 kts | 148° |
| 2026-05-05 08:48 | 26.73368 | -76.39358 | 35008 ft | 501 kts | 148° |
| 2026-05-05 08:48 | 26.67908 | -76.34526 | 34999 ft | 501 kts | 148° |
| 2026-05-05 08:49 | 26.62438 | -76.29690 | 35002 ft | 501 kts | 148° |
| 2026-05-05 08:49 | 26.56968 | -76.24861 | 35001 ft | 501 kts | 148° |
| 2026-05-05 08:50 | 26.51495 | -76.20035 | 34993 ft | 501 kts | 148° |
| 2026-05-05 08:50 | 26.46028 | -76.15220 | 34994 ft | 501 kts | 148° |
| 2026-05-05 08:51 | 26.40557 | -76.10407 | 34992 ft | 500 kts | 148° |
| 2026-05-05 08:51 | 26.35093 | -76.05605 | 34990 ft | 499 kts | 148° |
| 2026-05-05 08:52 | 26.29662 | -76.00841 | 34988 ft | 499 kts | 148° |
| 2026-05-05 08:52 | 26.24166 | -75.96025 | 34989 ft | 499 kts | 148° |
| 2026-05-05 08:53 | 26.18739 | -75.91276 | 34988 ft | 499 kts | 148° |
| 2026-05-05 08:53 | 26.13270 | -75.86495 | 34981 ft | 500 kts | 148° |
| 2026-05-05 08:54 | 26.07793 | -75.81714 | 34984 ft | 500 kts | 148° |
| 2026-05-05 08:54 | 26.02321 | -75.76941 | 34981 ft | 500 kts | 148° |
| 2026-05-05 08:55 | 25.96853 | -75.72176 | 34993 ft | 498 kts | 148° |
| 2026-05-05 08:55 | 25.91400 | -75.67433 | 34987 ft | 498 kts | 148° |
| 2026-05-05 08:56 | 25.85941 | -75.62690 | 34986 ft | 498 kts | 148° |
| 2026-05-05 08:56 | 25.80521 | -75.57987 | 34989 ft | 498 kts | 148° |
| 2026-05-05 08:57 | 25.75068 | -75.53260 | 34987 ft | 498 kts | 148° |
| 2026-05-05 08:57 | 25.69605 | -75.48531 | 34987 ft | 498 kts | 148° |
| 2026-05-05 08:58 | 25.64139 | -75.43804 | 34991 ft | 498 kts | 148° |
| 2026-05-05 08:58 | 25.58668 | -75.39078 | 34990 ft | 497 kts | 149° |
| 2026-05-05 08:59 | 25.53229 | -75.34384 | 34990 ft | 496 kts | 149° |
| 2026-05-05 08:59 | 25.47809 | -75.29716 | 34992 ft | 495 kts | 148° |
| 2026-05-05 09:00 | 25.42371 | -75.25035 | 34993 ft | 495 kts | 148° |
| 2026-05-05 09:00 | 25.36933 | -75.20361 | 35000 ft | 495 kts | 148° |
| 2026-05-05 09:01 | 25.31492 | -75.15690 | 34993 ft | 495 kts | 148° |
| 2026-05-05 09:01 | 25.26050 | -75.11022 | 34993 ft | 495 kts | 148° |
| 2026-05-05 09:02 | 25.20648 | -75.06395 | 35001 ft | 494 kts | 148° |
| 2026-05-05 09:02 | 25.15213 | -75.01744 | 34993 ft | 494 kts | 148° |
| 2026-05-05 09:03 | 25.09771 | -74.97095 | 34998 ft | 495 kts | 148° |
| 2026-05-05 09:03 | 25.04322 | -74.92443 | 34998 ft | 495 kts | 148° |
| 2026-05-05 09:04 | 24.98880 | -74.87802 | 35003 ft | 495 kts | 148° |
| 2026-05-05 09:04 | 24.93451 | -74.83179 | 34998 ft | 495 kts | 148° |
| 2026-05-05 09:05 | 24.87998 | -74.78539 | 34998 ft | 495 kts | 148° |
| 2026-05-05 09:05 | 24.82542 | -74.73903 | 34998 ft | 495 kts | 149° |
| 2026-05-05 09:06 | 24.77077 | -74.69266 | 35004 ft | 497 kts | 149° |
| 2026-05-05 09:06 | 24.71596 | -74.64619 | 35001 ft | 497 kts | 149° |
| 2026-05-05 09:07 | 24.66113 | -74.59975 | 35002 ft | 497 kts | 149° |
| 2026-05-05 09:07 | 24.60636 | -74.55341 | 35004 ft | 497 kts | 149° |
| 2026-05-05 09:08 | 24.55150 | -74.50706 | 35004 ft | 497 kts | 149° |
| 2026-05-05 09:08 | 24.49703 | -74.46109 | 34991 ft | 497 kts | 149° |
| 2026-05-05 09:09 | 24.44215 | -74.41483 | 35000 ft | 497 kts | 149° |
| 2026-05-05 09:09 | 24.38735 | -74.36869 | 35002 ft | 497 kts | 149° |
| 2026-05-05 09:10 | 24.33246 | -74.32251 | 35006 ft | 497 kts | 149° |
| 2026-05-05 09:10 | 24.27756 | -74.27639 | 35006 ft | 497 kts | 149° |
| 2026-05-05 09:11 | 24.22266 | -74.23032 | 35006 ft | 497 kts | 149° |
| 2026-05-05 09:11 | 24.16782 | -74.18435 | 34996 ft | 496 kts | 148° |
| 2026-05-05 09:12 | 24.11312 | -74.13853 | 35004 ft | 493 kts | 148° |
| 2026-05-05 09:12 | 24.05872 | -74.09301 | 35007 ft | 491 kts | 148° |
| 2026-05-05 09:13 | 24.00431 | -74.04757 | 35007 ft | 492 kts | 148° |
| 2026-05-05 09:13 | 23.94998 | -74.00223 | 35003 ft | 492 kts | 148° |
| 2026-05-05 09:14 | 23.89558 | -73.95688 | 35008 ft | 491 kts | 148° |
| 2026-05-05 09:14 | 23.84162 | -73.91193 | 35005 ft | 491 kts | 148° |
| 2026-05-05 09:15 | 23.78726 | -73.86672 | 35003 ft | 491 kts | 148° |
| 2026-05-05 09:15 | 23.73296 | -73.82159 | 35005 ft | 491 kts | 148° |
| 2026-05-05 09:16 | 23.67858 | -73.77645 | 35012 ft | 491 kts | 148° |
| 2026-05-05 09:16 | 23.62428 | -73.73142 | 35010 ft | 491 kts | 148° |
| 2026-05-05 09:17 | 23.56989 | -73.68636 | 35000 ft | 491 kts | 148° |
| 2026-05-05 09:17 | 23.51549 | -73.64136 | 35005 ft | 490 kts | 148° |
| 2026-05-05 09:18 | 23.46158 | -73.59678 | 35005 ft | 489 kts | 148° |
| 2026-05-05 09:18 | 23.40741 | -73.55206 | 35007 ft | 489 kts | 148° |
| 2026-05-05 09:19 | 23.35316 | -73.50731 | 35007 ft | 489 kts | 148° |
| 2026-05-05 09:19 | 23.29897 | -73.46266 | 35007 ft | 489 kts | 148° |
| 2026-05-05 09:20 | 23.24463 | -73.41793 | 35007 ft | 489 kts | 148° |
| 2026-05-05 09:20 | 23.19035 | -73.37330 | 35006 ft | 489 kts | 148° |
| 2026-05-05 09:21 | 23.13614 | -73.32877 | 35005 ft | 489 kts | 148° |
| 2026-05-05 09:21 | 23.08229 | -73.28458 | 35010 ft | 488 kts | 148° |
| 2026-05-05 09:22 | 23.02802 | -73.24010 | 35007 ft | 488 kts | 148° |
| 2026-05-05 09:22 | 22.97382 | -73.19571 | 35009 ft | 488 kts | 148° |
| 2026-05-05 09:23 | 22.91952 | -73.15130 | 35006 ft | 488 kts | 148° |
| 2026-05-05 09:23 | 22.86521 | -73.10692 | 35006 ft | 488 kts | 148° |
| 2026-05-05 09:24 | 22.81089 | -73.06258 | 35011 ft | 488 kts | 148° |
| 2026-05-05 09:24 | 22.75669 | -73.01837 | 35007 ft | 486 kts | 148° |
| 2026-05-05 09:25 | 22.70299 | -72.97462 | 35008 ft | 486 kts | 148° |
| 2026-05-05 09:25 | 22.64896 | -72.93065 | 35008 ft | 486 kts | 148° |
| 2026-05-05 09:26 | 22.59476 | -72.88659 | 35006 ft | 487 kts | 148° |
| 2026-05-05 09:26 | 22.54052 | -72.84254 | 35008 ft | 487 kts | 148° |
| 2026-05-05 09:27 | 22.48635 | -72.79858 | 34985 ft | 487 kts | 148° |
| 2026-05-05 09:27 | 22.43212 | -72.75462 | 35006 ft | 487 kts | 149° |
| 2026-05-05 09:28 | 22.37792 | -72.71073 | 35006 ft | 486 kts | 149° |
| 2026-05-05 09:28 | 22.32368 | -72.66685 | 35004 ft | 486 kts | 149° |
| 2026-05-05 09:29 | 22.26953 | -72.62309 | 35003 ft | 486 kts | 149° |
| 2026-05-05 09:29 | 22.21530 | -72.57931 | 35000 ft | 486 kts | 149° |
| 2026-05-05 09:30 | 22.16146 | -72.53588 | 35002 ft | 486 kts | 149° |
| 2026-05-05 09:30 | 22.10723 | -72.49218 | 35003 ft | 486 kts | 149° |
| 2026-05-05 09:31 | 22.05302 | -72.44855 | 35000 ft | 487 kts | 149° |
| 2026-05-05 09:31 | 21.99864 | -72.40482 | 35000 ft | 487 kts | 149° |
| 2026-05-05 09:32 | 21.94470 | -72.36148 | 35001 ft | 487 kts | 149° |
| 2026-05-05 09:32 | 21.89037 | -72.31788 | 35001 ft | 487 kts | 149° |
| 2026-05-05 09:33 | 21.83609 | -72.27435 | 35001 ft | 487 kts | 149° |
| 2026-05-05 09:33 | 21.78184 | -72.23089 | 34991 ft | 486 kts | 149° |
| 2026-05-05 09:34 | 21.72765 | -72.18750 | 35001 ft | 485 kts | 149° |
| 2026-05-05 09:34 | 21.67345 | -72.14417 | 35002 ft | 485 kts | 149° |
| 2026-05-05 09:35 | 21.61932 | -72.10094 | 35000 ft | 485 kts | 149° |
| 2026-05-05 09:35 | 21.53832 | -72.03632 | 34998 ft | 485 kts | 149° |
| 2026-05-05 09:36 | 21.48408 | -71.99310 | 34998 ft | 485 kts | 149° |
| 2026-05-05 09:36 | 21.42986 | -71.94994 | 34992 ft | 485 kts | 149° |
| 2026-05-05 09:37 | 21.37569 | -71.90686 | 34990 ft | 485 kts | 149° |
| 2026-05-05 09:37 | 21.33063 | -71.87104 | 34996 ft | 485 kts | 149° |
| 2026-05-05 09:38 | 21.27637 | -71.82796 | 34996 ft | 485 kts | 149° |
| 2026-05-05 09:38 | 21.22211 | -71.78492 | 34996 ft | 485 kts | 150° |
| 2026-05-05 09:39 | 21.16785 | -71.74192 | 34993 ft | 485 kts | 150° |
| 2026-05-05 09:39 | 21.11397 | -71.69926 | 34993 ft | 485 kts | 150° |
| 2026-05-05 09:40 | 21.05966 | -71.65630 | 34993 ft | 485 kts | 149° |
| 2026-05-05 09:40 | 21.00535 | -71.61334 | 34991 ft | 485 kts | 149° |
| 2026-05-05 09:41 | 20.95177 | -71.56892 | 34990 ft | 487 kts | 147° |
| 2026-05-05 09:41 | 20.89916 | -71.52412 | 34987 ft | 486 kts | 147° |
| 2026-05-05 09:42 | 20.84624 | -71.47914 | 34988 ft | 485 kts | 147° |
| 2026-05-05 09:42 | 20.79331 | -71.43443 | 34988 ft | 485 kts | 147° |
| 2026-05-05 09:43 | 20.74026 | -71.38975 | 34982 ft | 485 kts | 147° |
| 2026-05-05 09:43 | 20.68725 | -71.34516 | 34984 ft | 484 kts | 147° |
| 2026-05-05 09:44 | 20.63434 | -71.30070 | 34997 ft | 484 kts | 147° |
| 2026-05-05 09:44 | 20.58134 | -71.25620 | 34995 ft | 484 kts | 147° |
| 2026-05-05 09:45 | 20.52834 | -71.21172 | 34999 ft | 484 kts | 147° |
| 2026-05-05 09:45 | 20.47533 | -71.16727 | 34996 ft | 484 kts | 147° |
| 2026-05-05 09:46 | 20.42268 | -71.12318 | 34997 ft | 484 kts | 147° |
| 2026-05-05 09:46 | 20.36974 | -71.07888 | 34991 ft | 484 kts | 147° |
| 2026-05-05 09:47 | 20.31671 | -71.03454 | 34985 ft | 484 kts | 147° |
| 2026-05-05 09:47 | 20.26367 | -70.99023 | 34984 ft | 484 kts | 147° |
| 2026-05-05 09:48 | 20.21069 | -70.94602 | 34997 ft | 484 kts | 147° |
| 2026-05-05 09:48 | 20.15763 | -70.90177 | 35001 ft | 484 kts | 147° |
| 2026-05-05 09:49 | 20.10456 | -70.85757 | 34993 ft | 484 kts | 147° |
| 2026-05-05 09:49 | 20.05166 | -70.81352 | 34992 ft | 483 kts | 147° |
| 2026-05-05 09:50 | 19.99903 | -70.76975 | 34995 ft | 482 kts | 147° |
| 2026-05-05 09:50 | 19.94620 | -70.72586 | 34984 ft | 482 kts | 147° |
| 2026-05-05 09:51 | 19.89329 | -70.68193 | 34980 ft | 482 kts | 147° |
| 2026-05-05 09:51 | 19.84035 | -70.63803 | 34968 ft | 482 kts | 147° |
| 2026-05-05 09:52 | 19.78741 | -70.59416 | 34969 ft | 482 kts | 147° |
| 2026-05-05 09:52 | 19.73302 | -70.55277 | 34966 ft | 479 kts | 152° |
| 2026-05-05 09:53 | 19.67757 | -70.51450 | 34468 ft | 479 kts | 152° |
| 2026-05-05 09:53 | 19.64943 | -70.49541 | 33664 ft | 481 kts | 152° |
| 2026-05-05 09:53 | 19.62112 | -70.47628 | 32756 ft | 485 kts | 152° |
| 2026-05-05 09:54 | 19.59261 | -70.45698 | 31910 ft | 487 kts | 152° |
| 2026-05-05 09:54 | 19.56406 | -70.43761 | 31160 ft | 486 kts | 152° |
| 2026-05-05 09:54 | 19.53567 | -70.41829 | 30522 ft | 483 kts | 151° |
| 2026-05-05 09:54 | 19.50756 | -70.39913 | 29963 ft | 478 kts | 151° |
| 2026-05-05 09:55 | 19.47968 | -70.38014 | 29299 ft | 474 kts | 151° |
| 2026-05-05 09:55 | 19.45208 | -70.36135 | 28677 ft | 469 kts | 151° |
| 2026-05-05 09:55 | 19.42481 | -70.34281 | 28118 ft | 463 kts | 150° |
| 2026-05-05 09:55 | 19.39776 | -70.32442 | 27434 ft | 460 kts | 150° |
| 2026-05-05 09:56 | 19.37064 | -70.30649 | 26861 ft | 455 kts | 152° |
| 2026-05-05 09:56 | 19.34243 | -70.29294 | 25323 ft | 425 kts | 167° |
| 2026-05-05 09:56 | 19.32246 | -70.28453 | 22285 ft | 295 kts | 163° |
| 2026-05-05 09:56 | 19.30732 | -70.27940 | 14231 ft | 299 kts | 21° |
| 2026-05-05 09:57 | 19.32627 | -70.27179 | 14283 ft | 283 kts | 18° |
| 2026-05-05 09:57 | 19.34064 | -70.26066 | 14982 ft | 240 kts | 56° |
| 2026-05-05 09:57 | 19.34552 | -70.24463 | 15002 ft | 230 kts | 90° |
| 2026-05-05 09:57 | 19.34445 | -70.22749 | 14906 ft | 241 kts | 99° |
| 2026-05-05 09:58 | 19.34222 | -70.20897 | 14979 ft | 269 kts | 99° |
| 2026-05-05 09:58 | 19.33814 | -70.18908 | 15534 ft | 280 kts | 111° |
| 2026-05-05 09:58 | 19.32980 | -70.16996 | 16150 ft | 294 kts | 121° |
| 2026-05-05 09:58 | 19.31779 | -70.15147 | 16447 ft | 317 kts | 132° |
| 2026-05-05 09:59 | 19.30235 | -70.13412 | 17012 ft | 326 kts | 139° |
| 2026-05-05 09:59 | 19.28400 | -70.11959 | 17503 ft | 337 kts | 151° |
| 2026-05-05 09:59 | 19.26379 | -70.10752 | 17768 ft | 330 kts | 155° |
| 2026-05-05 09:59 | 19.24336 | -70.09671 | 17518 ft | 328 kts | 155° |
| 2026-05-05 10:00 | 19.22995 | -70.08928 | 17245 ft | 329 kts | 154° |
| 2026-05-05 10:00 | 19.20943 | -70.07840 | 16665 ft | 332 kts | 165° |
| 2026-05-05 10:00 | 19.18646 | -70.07550 | 15912 ft | 337 kts | 182° |
| 2026-05-05 10:00 | 19.16266 | -70.07398 | 15114 ft | 349 kts | 172° |
| 2026-05-05 10:01 | 19.13886 | -70.06757 | 14340 ft | 358 kts | 163° |
| 2026-05-05 10:01 | 19.11572 | -70.05780 | 13868 ft | 356 kts | 157° |
| 2026-05-05 10:01 | 19.09360 | -70.04640 | 13503 ft | 349 kts | 154° |
| 2026-05-05 10:01 | 19.07263 | -70.03443 | 13294 ft | 337 kts | 152° |
| 2026-05-05 10:02 | 19.05253 | -70.02233 | 13102 ft | 326 kts | 151° |
| 2026-05-05 10:02 | 19.03330 | -70.01040 | 12926 ft | 315 kts | 151° |
| 2026-05-05 10:02 | 19.01483 | -69.99875 | 12768 ft | 305 kts | 150° |
| 2026-05-05 10:02 | 18.99694 | -69.98735 | 12599 ft | 295 kts | 150° |
| 2026-05-05 10:03 | 18.97958 | -69.97618 | 12276 ft | 292 kts | 150° |
| 2026-05-05 10:03 | 18.96221 | -69.96497 | 11869 ft | 292 kts | 149° |
| 2026-05-05 10:03 | 18.94463 | -69.95364 | 11338 ft | 298 kts | 149° |
| 2026-05-05 10:03 | 18.92724 | -69.94243 | 10728 ft | 296 kts | 149° |
| 2026-05-05 10:04 | 18.90970 | -69.93112 | 10114 ft | 294 kts | 149° |
| 2026-05-05 10:04 | 18.89230 | -69.91990 | 9536 ft | 292 kts | 149° |
| 2026-05-05 10:04 | 18.87506 | -69.90880 | 9154 ft | 288 kts | 149° |
| 2026-05-05 10:04 | 18.85798 | -69.89780 | 8691 ft | 287 kts | 148° |
| 2026-05-05 10:05 | 18.84103 | -69.88689 | 8077 ft | 284 kts | 148° |
| 2026-05-05 10:05 | 18.82427 | -69.87610 | 7473 ft | 281 kts | 148° |
| 2026-05-05 10:05 | 18.80759 | -69.86537 | 6864 ft | 279 kts | 148° |
| 2026-05-05 10:05 | 18.79108 | -69.85474 | 6273 ft | 276 kts | 148° |
| 2026-05-05 10:06 | 18.77485 | -69.84430 | 5710 ft | 272 kts | 148° |
| 2026-05-05 10:06 | 18.75883 | -69.83400 | 5150 ft | 267 kts | 148° |
| 2026-05-05 10:06 | 18.74308 | -69.82386 | 4569 ft | 263 kts | 148° |
| 2026-05-05 10:06 | 18.72753 | -69.81386 | 3989 ft | 260 kts | 149° |
| 2026-05-05 10:07 | 18.71207 | -69.80392 | 3433 ft | 258 kts | 149° |
| 2026-05-05 10:07 | 18.69690 | -69.79418 | 3092 ft | 260 kts | 149° |
| 2026-05-05 10:07 | 18.68131 | -69.78416 | 2994 ft | 259 kts | 149° |
| 2026-05-05 10:07 | 18.66597 | -69.77430 | 2999 ft | 255 kts | 149° |
| 2026-05-05 10:08 | 18.65144 | -69.76498 | 2975 ft | 240 kts | 149° |
| 2026-05-05 10:08 | 18.63776 | -69.75619 | 3003 ft | 220 kts | 149° |
| 2026-05-05 10:08 | 18.62536 | -69.74823 | 2980 ft | 198 kts | 149° |
| 2026-05-05 10:08 | 18.61421 | -69.74107 | 2976 ft | 178 kts | 149° |
| 2026-05-05 10:09 | 18.60382 | -69.73455 | 2971 ft | 170 kts | 153° |
| 2026-05-05 10:09 | 18.59317 | -69.72969 | 2701 ft | 167 kts | 159° |
| 2026-05-05 10:09 | 18.58230 | -69.72555 | 2411 ft | 162 kts | 160° |
| 2026-05-05 10:09 | 18.57201 | -69.72177 | 2162 ft | 152 kts | 159° |
| 2026-05-05 10:10 | 18.56236 | -69.71823 | 1977 ft | 141 kts | 159° |
| 2026-05-05 10:10 | 18.55290 | -69.71474 | 2005 ft | 148 kts | 159° |
| 2026-05-05 10:10 | 18.54314 | -69.71112 | 1995 ft | 150 kts | 159° |
| 2026-05-05 10:10 | 18.53329 | -69.70745 | 1989 ft | 149 kts | 159° |
| 2026-05-05 10:11 | 18.52350 | -69.70379 | 1902 ft | 152 kts | 159° |
| 2026-05-05 10:11 | 18.51360 | -69.70008 | 1628 ft | 149 kts | 158° |
| 2026-05-05 10:11 | 18.50382 | -69.69620 | 1338 ft | 148 kts | 156° |
| 2026-05-05 10:11 | 18.49463 | -69.69248 | 1305 ft | 135 kts | 157° |
| 2026-05-05 10:12 | 18.48621 | -69.68939 | 1176 ft | 124 kts | 158° |
| 2026-05-05 10:12 | 18.47815 | -69.68624 | 931 ft | 124 kts | 158° |
| 2026-05-05 10:12 | 18.47001 | -69.68341 | 675 ft | 123 kts | 158° |
| 2026-05-05 10:12 | 18.46185 | -69.68037 | 496 ft | 127 kts | 157° |
| 2026-05-05 10:13 | 18.45330 | -69.67724 | 321 ft | 130 kts | 157° |
| 2026-05-05 10:13 | 18.44468 | -69.67421 | 125 ft | 131 kts | 158° |
| 2026-05-05 10:13 | 18.43623 | -69.67113 | 97 ft | 127 kts | 161° |
| 2026-05-05 10:13 | 18.42784 | -69.66822 | 87 ft | 120 kts | 162° |
| 2026-05-05 10:14 | 18.42241 | -69.66623 | 86 ft | 45 kts | 160° |
| 2026-05-05 10:14 | 18.41988 | -69.66534 | 88 ft | 26 kts | 162° |
| 2026-05-05 10:14 | 18.41827 | -69.66474 | 86 ft | 24 kts | 159° |
| 2026-05-05 10:14 | 18.41692 | -69.66424 | 86 ft | 14 kts | 163° |
| 2026-05-05 10:15 | 18.41623 | -69.66427 | 89 ft | 9 kts | 214° |
| 2026-05-05 10:15 | 18.41612 | -69.66483 | 85 ft | 9 kts | 281° |
| 2026-05-05 10:15 | 18.41634 | -69.66530 | 85 ft | 0 kts | 298° |
| 2026-05-05 10:18 | 18.41639 | -69.66539 | 83 ft | 3 kts | 298° |
| 2026-05-05 10:18 | 18.41655 | -69.66570 | 67 ft | 7 kts | 300° |
| 2026-05-05 10:18 | 18.41687 | -69.66616 | 73 ft | 8 kts | 321° |
| 2026-05-05 10:19 | 18.41736 | -69.66637 | 71 ft | 7 kts | 340° |
| 2026-05-05 10:19 | 18.41809 | -69.66663 | 75 ft | 13 kts | 341° |
| 2026-05-05 10:19 | 18.41924 | -69.66706 | 77 ft | 19 kts | 340° |
| 2026-05-05 10:19 | 18.42047 | -69.66752 | 69 ft | 18 kts | 341° |
| 2026-05-05 10:20 | 18.42162 | -69.66792 | 69 ft | 17 kts | 341° |
| 2026-05-05 10:20 | 18.42269 | -69.66830 | 67 ft | 16 kts | 342° |
| 2026-05-05 10:20 | 18.42372 | -69.66868 | 69 ft | 15 kts | 340° |
| 2026-05-05 10:20 | 18.42466 | -69.66902 | 70 ft | 14 kts | 340° |
| 2026-05-05 10:21 | 18.42556 | -69.66935 | 72 ft | 13 kts | 341° |
| 2026-05-05 10:21 | 18.42660 | -69.66973 | 75 ft | 18 kts | 340° |
| 2026-05-05 10:21 | 18.42775 | -69.67015 | 70 ft | 17 kts | 341° |
| 2026-05-05 10:21 | 18.42882 | -69.67054 | 72 ft | 16 kts | 340° |
| 2026-05-05 10:22 | 18.43005 | -69.67100 | 70 ft | 22 kts | 341° |
| 2026-05-05 10:22 | 18.43147 | -69.67153 | 69 ft | 21 kts | 341° |
| 2026-05-05 10:22 | 18.43283 | -69.67202 | 68 ft | 20 kts | 340° |
| 2026-05-05 10:22 | 18.43403 | -69.67247 | 67 ft | 16 kts | 340° |
| 2026-05-05 10:23 | 18.43482 | -69.67276 | 74 ft | 10 kts | 340° |
| 2026-05-05 10:23 | 18.43523 | -69.67323 | 71 ft | 8 kts | 274° |
| 2026-05-05 10:23 | 18.43494 | -69.67372 | 66 ft | 8 kts | 226° |
| 2026-05-05 10:23 | 18.43456 | -69.67414 | 73 ft | 8 kts | 227° |
| 2026-05-05 10:24 | 18.43421 | -69.67455 | 66 ft | 7 kts | 227° |
| 2026-05-05 10:24 | 18.43403 | -69.67495 | 66 ft | 6 kts | 260° |
| 2026-05-05 10:24 | 18.43411 | -69.67531 | 73 ft | 5 kts | 293° |
| 2026-05-05 10:24 | 18.43426 | -69.67560 | 64 ft | 4 kts | 298° |
| 2026-05-05 10:25 | 18.43438 | -69.67587 | 69 ft | 4 kts | 294° |
| 2026-05-05 10:25 | 18.43448 | -69.67611 | 67 ft | 3 kts | 296° |
| 2026-05-05 10:25 | 18.43451 | -69.67616 | 74 ft | 0 kts | 296° |